Time;durP1;ratioP1;P1;durP2;ratioP2;P2;SDS_P1;SDS_P2;PMS_P1;PMS_P2;Temp;Humidity;BMP_temperature;BMP_pressure;BME280_temperature;BME280_humidity;BME280_pressure;Samples;Min_cycle;Max_cycle;Signal;HPM_P1;HPM_P2
2022/12/21 00:01:06;;;;;;;3.63;1.60;;;;;;;;;;5001803;28;20030;-71
2022/12/21 00:03:32;;;;;;;2.15;1.70;;;;;;;;;;5003632;28;20041;-69
2022/12/21 00:05:58;;;;;;;3.67;1.75;;;;;;;;;;5006594;28;20105;-70
2022/12/21 00:08:24;;;;;;;2.67;1.80;;;;;;;;;;5007269;28;20030;-72
2022/12/21 00:10:50;;;;;;;2.35;2.13;;;;;;;;;;5005574;28;20026;-71
2022/12/21 00:13:17;;;;;;;2.33;1.65;;;;;;;;;;5004466;28;20033;-70
2022/12/21 00:15:44;;;;;;;10.40;2.20;;;;;;;;;;5003774;28;20489;-70
2022/12/21 00:18:10;;;;;;;5.13;1.88;;;;;;;;;;5005320;28;20014;-71
2022/12/21 00:20:36;;;;;;;2.63;1.48;;;;;;;;;;5006277;28;20029;-70
2022/12/21 00:23:03;;;;;;;2.75;1.95;;;;;;;;;;5006410;28;20026;-72
2022/12/21 00:25:29;;;;;;;2.55;1.70;;;;;;;;;;5004490;28;20094;-70
2022/12/21 00:27:55;;;;;;;2.60;1.90;;;;;;;;;;5005815;28;20026;-70
2022/12/21 00:30:21;;;;;;;2.53;1.65;;;;;;;;;;5005888;28;20018;-69
2022/12/21 00:32:47;;;;;;;2.72;1.67;;;;;;;;;;5007271;28;20167;-71
2022/12/21 00:35:13;;;;;;;2.25;1.45;;;;;;;;;;5006448;28;20033;-70
2022/12/21 00:37:39;;;;;;;3.03;1.60;;;;;;;;;;5005291;28;20017;-70
2022/12/21 00:40:06;;;;;;;2.67;1.50;;;;;;;;;;5005049;28;20026;-70
2022/12/21 00:42:32;;;;;;;2.60;2.00;;;;;;;;;;5005627;28;20379;-70
2022/12/21 00:44:59;;;;;;;2.10;1.55;;;;;;;;;;5000053;28;20021;-71
2022/12/21 00:47:25;;;;;;;2.28;1.45;;;;;;;;;;5004604;28;20506;-71
2022/12/21 00:49:51;;;;;;;3.97;1.63;;;;;;;;;;5006201;28;20029;-80
2022/12/21 00:52:17;;;;;;;3.63;2.05;;;;;;;;;;5005166;28;20018;-70
2022/12/21 00:54:43;;;;;;;3.25;1.63;;;;;;;;;;5004295;28;20050;-73
2022/12/21 00:57:09;;;;;;;4.28;1.70;;;;;;;;;;5005935;28;20022;-70
2022/12/21 00:59:35;;;;;;;4.10;1.80;;;;;;;;;;5005521;28;20026;-72
2022/12/21 01:02:01;;;;;;;2.83;1.92;;;;;;;;;;5005620;28;20671;-71
2022/12/21 01:04:28;;;;;;;2.05;1.60;;;;;;;;;;5005226;28;20470;-70
2022/12/21 01:06:54;;;;;;;3.25;2.17;;;;;;;;;;5002552;28;20597;-83
2022/12/21 01:09:20;;;;;;;1.88;1.40;;;;;;;;;;5001956;28;20803;-70
2022/12/21 01:11:46;;;;;;;2.90;2.20;;;;;;;;;;5005317;28;20103;-70
2022/12/21 01:14:12;;;;;;;2.80;1.85;;;;;;;;;;5005754;28;20034;-70
2022/12/21 01:16:38;;;;;;;3.25;2.25;;;;;;;;;;5002386;28;20060;-71
2022/12/21 01:19:06;;;;;;;4.85;2.17;;;;;;;;;;5005824;28;20052;-70
2022/12/21 01:21:33;;;;;;;3.67;1.58;;;;;;;;;;5006562;28;20017;-75
2022/12/21 01:24:00;;;;;;;3.28;1.90;;;;;;;;;;5005832;28;20520;-70
2022/12/21 01:26:27;;;;;;;2.47;1.73;;;;;;;;;;4993885;28;20061;-75
2022/12/21 01:28:53;;;;;;;3.92;1.80;;;;;;;;;;5003293;28;20072;-75
2022/12/21 01:31:19;;;;;;;3.30;1.80;;;;;;;;;;5000571;28;20032;-70
2022/12/21 01:33:45;;;;;;;3.30;2.03;;;;;;;;;;5003525;28;20502;-70
2022/12/21 01:36:13;;;;;;;2.78;1.63;;;;;;;;;;5003629;28;20022;-70
2022/12/21 01:38:41;;;;;;;3.10;1.95;;;;;;;;;;5005137;28;20101;-71
2022/12/21 01:41:09;;;;;;;3.03;1.98;;;;;;;;;;5002989;28;20021;-70
2022/12/21 01:43:51;;;;;;;2.25;1.85;;;;;;;;;;5002828;28;20048;-70
2022/12/21 01:46:17;;;;;;;;;;;;;;;;;;5004496;28;20049;-75
2022/12/21 01:48:46;;;;;;;4.35;1.80;;;;;;;;;;5018578;28;19988;-70
2022/12/21 01:51:13;;;;;;;3.78;1.58;;;;;;;;;;5004372;28;20024;-69
2022/12/21 01:53:41;;;;;;;4.93;1.88;;;;;;;;;;5003172;28;20582;-74
2022/12/21 01:56:09;;;;;;;3.05;1.70;;;;;;;;;;5004829;28;20406;-70
2022/12/21 01:58:35;;;;;;;1.80;1.63;;;;;;;;;;5003509;28;20551;-70
2022/12/21 02:01:03;;;;;;;2.55;1.75;;;;;;;;;;5002726;28;20030;-69
2022/12/21 02:03:33;;;;;;;3.38;1.83;;;;;;;;;;5003067;28;20014;-69
2022/12/21 02:06:11;;;;;;;3.00;1.95;;;;;;;;;;5003330;28;20022;-70
2022/12/21 02:08:37;;;;;;;4.90;1.85;;;;;;;;;;5004742;28;20123;-70
2022/12/21 02:11:04;;;;;;;4.65;1.85;;;;;;;;;;5002639;28;20062;-71
2022/12/21 02:13:30;;;;;;;3.35;1.80;;;;;;;;;;5004305;28;20079;-71
2022/12/21 02:15:59;;;;;;;4.80;1.73;;;;;;;;;;5004681;28;20026;-70
2022/12/21 02:18:44;;;;;;;2.53;1.73;;;;;;;;;;5003157;28;20029;-70
2022/12/21 02:21:31;;;;;;;2.85;1.50;;;;;;;;;;4997404;28;20528;-70
2022/12/21 02:24:08;;;;;;;2.33;1.80;;;;;;;;;;4990496;28;20034;-74
2022/12/21 02:26:46;;;;;;;2.17;1.50;;;;;;;;;;4999931;28;20057;-70
2022/12/21 02:29:12;;;;;;;3.00;1.67;;;;;;;;;;5002657;28;20022;-70
2022/12/21 02:31:38;;;;;;;2.97;1.73;;;;;;;;;;5001598;28;20026;-71
2022/12/21 02:34:24;;;;;;;1.88;1.27;;;;;;;;;;5002852;28;20030;-70
2022/12/21 02:37:01;;;;;;;2.00;1.60;;;;;;;;;;4998703;28;20030;-73
2022/12/21 02:39:30;;;;;;;2.13;1.83;;;;;;;;;;5018911;28;20018;-69
2022/12/21 02:42:08;;;;;;;3.10;1.77;;;;;;;;;;4994512;28;20034;-71
2022/12/21 02:44:34;;;;;;;3.25;2.28;;;;;;;;;;5002772;28;20014;-70
2022/12/21 02:47:04;;;;;;;3.22;2.00;;;;;;;;;;5002931;28;20053;-70
2022/12/21 02:49:30;;;;;;;2.97;1.65;;;;;;;;;;4999990;28;20504;-70
2022/12/21 02:52:22;;;;;;;2.97;1.92;;;;;;;;;;5003676;28;20072;-71
2022/12/21 02:54:53;;;;;;;3.85;2.13;;;;;;;;;;4971994;28;20466;-70
2022/12/21 02:57:29;;;;;;;5.50;2.05;;;;;;;;;;5003900;28;20087;-70
2022/12/21 02:59:56;;;;;;;3.10;1.75;;;;;;;;;;4997185;28;20621;-75
2022/12/21 03:02:22;;;;;;;6.70;1.60;;;;;;;;;;5003951;28;20036;-70
2022/12/21 03:05:12;;;;;;;3.08;2.00;;;;;;;;;;5004189;28;20025;-70
2022/12/21 03:07:57;;;;;;;2.70;1.80;;;;;;;;;;5003282;28;20036;-70
2022/12/21 03:10:29;;;;;;;4.90;2.25;;;;;;;;;;5000180;28;20026;-70
2022/12/21 03:12:55;;;;;;;;;;;;;;;;;;5003508;28;20028;-71
2022/12/21 03:15:21;;;;;;;2.55;1.90;;;;;;;;;;5002747;28;19980;-71
2022/12/21 03:17:53;;;;;;;3.65;1.80;;;;;;;;;;5003752;28;20025;-70
2022/12/21 03:20:34;;;;;;;2.90;1.90;;;;;;;;;;5003689;28;20029;-69
2022/12/21 03:23:07;;;;;;;3.40;2.05;;;;;;;;;;5003711;28;20056;-71
2022/12/21 03:25:33;;;;;;;2.55;1.80;;;;;;;;;;5002692;28;20706;-69
2022/12/21 03:28:04;;;;;;;2.67;1.65;;;;;;;;;;5003733;28;20022;-74
2022/12/21 03:30:33;;;;;;;3.20;2.05;;;;;;;;;;5002172;28;20022;-71
2022/12/21 03:33:02;;;;;;;3.60;2.15;;;;;;;;;;5002690;28;20029;-70
2022/12/21 03:35:47;;;;;;;3.28;1.85;;;;;;;;;;5003806;28;20038;-70
2022/12/21 03:38:16;;;;;;;4.47;1.92;;;;;;;;;;5003829;28;20024;-70
2022/12/21 03:40:44;;;;;;;3.55;2.03;;;;;;;;;;4998699;28;20467;-70
2022/12/21 03:43:36;;;;;;;3.25;2.00;;;;;;;;;;5003266;28;20080;-70
2022/12/21 03:46:02;;;;;;;;;;;;;;;;;;4992715;28;20050;-70
2022/12/21 03:48:35;;;;;;;2.67;1.75;;;;;;;;;;4998268;28;20588;-69
2022/12/21 03:51:05;;;;;;;2.85;1.98;;;;;;;;;;4998440;28;20037;-70
2022/12/21 03:53:31;;;;;;;4.07;1.92;;;;;;;;;;5006178;28;20121;-70
2022/12/21 03:55:58;;;;;;;3.15;1.75;;;;;;;;;;5006787;28;20482;-70
2022/12/21 03:58:25;;;;;;;2.13;1.50;;;;;;;;;;5007433;28;20026;-69
2022/12/21 04:01:06;;;;;;;4.18;2.22;;;;;;;;;;5005776;28;20924;-69
2022/12/21 04:03:35;;;;;;;3.80;1.45;;;;;;;;;;5007113;28;20083;-69
2022/12/21 04:06:21;;;;;;;2.00;1.58;;;;;;;;;;5006705;28;20239;-70
2022/12/21 04:08:48;;;;;;;3.20;2.00;;;;;;;;;;4998901;28;20065;-69
2022/12/21 04:12:36;;;;;;;2.83;2.13;;;;;;;;;;5006409;28;20032;-70
2022/12/21 04:14:00;;;;;;;2.17;1.67;;;;;;;;;;5005595;28;20038;-70
2022/12/21 04:16:27;;;;;;;2.53;1.90;;;;;;;;;;5006625;28;20125;-71
2022/12/21 04:21:38;;;;;;;2.80;2.00;;;;;;;;;;5002316;28;20045;-69
2022/12/21 04:29:34;;;;;;;3.88;1.73;;;;;;;;;;5001271;28;20045;-70
2022/12/21 04:32:00;;;;;;;3.05;2.10;;;;;;;;;;5002335;28;20100;-70
2022/12/21 04:34:27;;;;;;;3.72;1.90;;;;;;;;;;5004184;28;20033;-73
2022/12/21 04:39:38;;;;;;;5.40;2.10;;;;;;;;;;5000481;28;20052;-69
2022/12/21 04:42:04;;;;;;;3.33;2.00;;;;;;;;;;5003438;28;20168;-73
2022/12/21 04:44:30;;;;;;;2.80;2.03;;;;;;;;;;5003818;28;20026;-71
2022/12/21 04:46:56;;;;;;;3.30;1.75;;;;;;;;;;5003272;28;20200;-70
2022/12/21 04:49:23;;;;;;;2.88;1.73;;;;;;;;;;5003836;28;20581;-70
2022/12/21 04:51:49;;;;;;;4.20;2.15;;;;;;;;;;5001811;28;20026;-69
2022/12/21 04:54:15;;;;;;;4.03;2.15;;;;;;;;;;5003635;28;20053;-70
2022/12/21 04:56:41;;;;;;;2.88;2.10;;;;;;;;;;5003390;28;20080;-70
2022/12/21 04:59:07;;;;;;;3.75;2.13;;;;;;;;;;5001835;28;20022;-69
2022/12/21 05:01:34;;;;;;;2.97;1.83;;;;;;;;;;5003031;28;20047;-70
2022/12/21 05:04:00;;;;;;;5.38;1.85;;;;;;;;;;5003775;28;20033;-70
2022/12/21 05:06:26;;;;;;;3.55;1.98;;;;;;;;;;5003814;28;20152;-73
2022/12/21 05:08:52;;;;;;;2.53;1.98;;;;;;;;;;5003479;28;20128;-70
2022/12/21 05:11:22;;;;;;;3.10;2.30;;;;;;;;;;5001078;28;20021;-69
2022/12/21 05:13:49;;;;;;;3.17;1.90;;;;;;;;;;5002701;28;20041;-70
2022/12/21 05:16:17;;;;;;;3.85;1.92;;;;;;;;;;4997476;28;20030;-70
2022/12/21 05:18:43;;;;;;;6.03;2.72;;;;;;;;;;5001832;28;20017;-71
2022/12/21 05:21:10;;;;;;;3.05;2.17;;;;;;;;;;5002977;28;20056;-69
2022/12/21 05:23:36;;;;;;;3.05;2.08;;;;;;;;;;5003173;28;20084;-70
2022/12/21 05:26:03;;;;;;;2.50;2.00;;;;;;;;;;5002776;28;20042;-70
2022/12/21 05:28:29;;;;;;;4.43;2.03;;;;;;;;;;5001434;28;20068;-70
2022/12/21 05:30:55;;;;;;;2.83;1.90;;;;;;;;;;4998814;28;20025;-72
2022/12/21 05:33:21;;;;;;;3.78;2.00;;;;;;;;;;5001586;28;20109;-73
2022/12/21 05:35:47;;;;;;;2.97;2.08;;;;;;;;;;4999620;28;20029;-71
2022/12/21 05:38:14;;;;;;;2.78;1.92;;;;;;;;;;4998072;28;20033;-70
2022/12/21 05:40:40;;;;;;;2.85;1.83;;;;;;;;;;5002398;28;20018;-70
2022/12/21 05:43:06;;;;;;;2.30;2.00;;;;;;;;;;5001896;28;20025;-80
2022/12/21 05:45:33;;;;;;;2.30;1.77;;;;;;;;;;5002680;28;20021;-69
2022/12/21 05:47:59;;;;;;;2.90;1.90;;;;;;;;;;5002397;28;20026;-69
2022/12/21 05:50:25;;;;;;;2.53;2.05;;;;;;;;;;4999404;28;20018;-70
2022/12/21 05:52:51;;;;;;;3.60;2.10;;;;;;;;;;5002144;28;20018;-73
2022/12/21 05:55:18;;;;;;;2.70;2.03;;;;;;;;;;5002225;28;20026;-72
2022/12/21 05:57:44;;;;;;;5.10;1.80;;;;;;;;;;5002568;28;20068;-70
2022/12/21 06:00:10;;;;;;;3.55;2.15;;;;;;;;;;5001022;28;20025;-70
2022/12/21 06:02:37;;;;;;;4.25;2.33;;;;;;;;;;5001602;28;20635;-70
2022/12/21 06:05:03;;;;;;;3.28;2.10;;;;;;;;;;5002480;28;20693;-72
2022/12/21 06:07:30;;;;;;;2.72;1.88;;;;;;;;;;5002306;28;20025;-72
2022/12/21 06:09:56;;;;;;;3.97;2.33;;;;;;;;;;4998947;28;20029;-75
2022/12/21 06:12:22;;;;;;;2.33;1.70;;;;;;;;;;5001785;28;20014;-77
2022/12/21 06:14:48;;;;;;;2.30;1.63;;;;;;;;;;5000726;28;20034;-70
2022/12/21 06:17:15;;;;;;;4.07;1.92;;;;;;;;;;5002584;28;20045;-70
2022/12/21 06:19:42;;;;;;;3.00;2.15;;;;;;;;;;5002550;28;20556;-70
2022/12/21 06:22:08;;;;;;;2.45;1.95;;;;;;;;;;5001391;28;20018;-69
2022/12/21 06:24:34;;;;;;;2.90;2.08;;;;;;;;;;5002298;28;20517;-69
2022/12/21 06:27:01;;;;;;;2.85;2.13;;;;;;;;;;5000490;28;20628;-69
2022/12/21 06:29:27;;;;;;;3.42;2.05;;;;;;;;;;4998452;28;20140;-69
2022/12/21 06:31:53;;;;;;;2.67;1.90;;;;;;;;;;4997174;28;20029;-69
2022/12/21 06:34:19;;;;;;;3.97;2.15;;;;;;;;;;5001870;28;20038;-69
2022/12/21 06:36:47;;;;;;;3.45;1.83;;;;;;;;;;5002659;28;20022;-72
2022/12/21 06:39:13;;;;;;;7.70;1.85;;;;;;;;;;5002334;28;20049;-71
2022/12/21 06:41:39;;;;;;;7.97;2.53;;;;;;;;;;4999255;28;20018;-70
2022/12/21 06:44:05;;;;;;;6.32;2.05;;;;;;;;;;4999500;28;20036;-71
2022/12/21 06:46:32;;;;;;;2.75;1.98;;;;;;;;;;5000352;28;20644;-72
2022/12/21 06:48:59;;;;;;;3.25;1.73;;;;;;;;;;4999544;28;20113;-71
2022/12/21 06:51:26;;;;;;;6.18;2.13;;;;;;;;;;4998562;28;20061;-77
2022/12/21 06:53:53;;;;;;;4.95;2.00;;;;;;;;;;4999998;28;20537;-71
2022/12/21 06:56:27;;;;;;;3.67;2.00;;;;;;;;;;4998153;28;20072;-71
2022/12/21 06:58:54;;;;;;;4.00;2.05;;;;;;;;;;4997872;28;20116;-70
2022/12/21 07:01:20;;;;;;;2.90;2.10;;;;;;;;;;5000617;28;20025;-71
2022/12/21 07:03:47;;;;;;;3.30;2.05;;;;;;;;;;4997072;28;20048;-71
2022/12/21 07:06:14;;;;;;;3.22;2.08;;;;;;;;;;5000908;28;20026;-70
2022/12/21 07:08:40;;;;;;;3.47;2.00;;;;;;;;;;5001480;28;20026;-71
2022/12/21 07:11:07;;;;;;;3.22;2.10;;;;;;;;;;5000080;28;20026;-70
2022/12/21 07:13:37;;;;;;;2.95;2.33;;;;;;;;;;5000639;28;20033;-70
2022/12/21 07:16:04;;;;;;;4.45;2.33;;;;;;;;;;5001566;28;20592;-71
2022/12/21 07:18:30;;;;;;;3.25;2.10;;;;;;;;;;5000125;28;20018;-71
2022/12/21 07:20:57;;;;;;;5.05;2.22;;;;;;;;;;5001740;28;20108;-70
2022/12/21 07:23:24;;;;;;;5.30;2.80;;;;;;;;;;5000946;28;20482;-70
2022/12/21 07:25:50;;;;;;;8.10;3.78;;;;;;;;;;5000245;28;20056;-79
2022/12/21 07:28:16;;;;;;;10.23;5.20;;;;;;;;;;5003788;28;20022;-71
2022/12/21 07:30:47;;;;;;;12.65;5.32;;;;;;;;;;5005065;28;20014;-72
2022/12/21 07:33:14;;;;;;;11.52;4.97;;;;;;;;;;5004979;28;20025;-71
2022/12/21 07:35:40;;;;;;;17.02;5.57;;;;;;;;;;5001922;28;20676;-70
2022/12/21 07:38:06;;;;;;;21.27;6.53;;;;;;;;;;5005174;28;20409;-71
2022/12/21 07:40:32;;;;;;;16.45;6.78;;;;;;;;;;5004478;28;20029;-70
2022/12/21 07:42:58;;;;;;;14.48;6.50;;;;;;;;;;5002988;28;20021;-70
2022/12/21 07:45:25;;;;;;;14.20;7.30;;;;;;;;;;5003324;28;20414;-71
2022/12/21 07:47:51;;;;;;;11.57;6.80;;;;;;;;;;5004998;28;20482;-70
2022/12/21 07:50:17;;;;;;;17.23;9.60;;;;;;;;;;5001914;28;20033;-69
2022/12/21 07:52:43;;;;;;;14.07;9.20;;;;;;;;;;5004454;28;20018;-70
2022/12/21 07:55:10;;;;;;;19.40;10.57;;;;;;;;;;5004506;28;20060;-70
2022/12/21 07:57:36;;;;;;;19.88;11.25;;;;;;;;;;5003572;28;20030;-70
2022/12/21 08:00:03;;;;;;;23.05;11.57;;;;;;;;;;5004593;28;20022;-69
2022/12/21 08:02:29;;;;;;;19.35;10.35;;;;;;;;;;5003799;28;20037;-69
2022/12/21 08:04:55;;;;;;;17.35;10.23;;;;;;;;;;5003137;28;20017;-71
2022/12/21 08:07:21;;;;;;;18.65;10.20;;;;;;;;;;5004257;28;20576;-70
2022/12/21 08:09:47;;;;;;;18.88;10.77;;;;;;;;;;5003674;28;20030;-70
2022/12/21 08:12:14;;;;;;;15.93;9.25;;;;;;;;;;5003702;28;20051;-70
2022/12/21 08:14:40;;;;;;;18.88;9.95;;;;;;;;;;4997458;28;20034;-66
2022/12/21 08:17:06;;;;;;;17.33;10.23;;;;;;;;;;5004883;28;20029;-70
2022/12/21 08:19:32;;;;;;;18.63;9.75;;;;;;;;;;5003158;28;20029;-70
2022/12/21 08:21:59;;;;;;;16.00;10.02;;;;;;;;;;5003995;28;20446;-69
2022/12/21 08:24:25;;;;;;;11.68;5.68;;;;;;;;;;5003413;28;20065;-69
2022/12/21 08:26:51;;;;;;;5.95;4.28;;;;;;;;;;5002585;28;20112;-70
2022/12/21 08:29:17;;;;;;;6.82;3.95;;;;;;;;;;5004126;28;20029;-70
2022/12/21 08:31:43;;;;;;;4.80;3.85;;;;;;;;;;5004133;28;20025;-71
2022/12/21 08:34:10;;;;;;;5.00;3.63;;;;;;;;;;5003148;28;20026;-71
2022/12/21 08:36:36;;;;;;;5.18;3.92;;;;;;;;;;5004046;28;20030;-70
2022/12/21 08:39:02;;;;;;;6.25;4.60;;;;;;;;;;5002028;28;20018;-70
2022/12/21 08:41:28;;;;;;;4.93;4.03;;;;;;;;;;5003843;28;20600;-70
2022/12/21 08:43:55;;;;;;;6.30;4.40;;;;;;;;;;5003045;28;20025;-69
2022/12/21 08:46:21;;;;;;;19.00;9.52;;;;;;;;;;5001962;28;20241;-70
2022/12/21 08:48:49;;;;;;;16.52;7.85;;;;;;;;;;5003637;28;20079;-70
2022/12/21 08:51:15;;;;;;;16.23;7.30;;;;;;;;;;5003642;28;20506;-70
2022/12/21 08:53:41;;;;;;;4.68;2.83;;;;;;;;;;5001270;28;20091;-71
2022/12/21 08:56:09;;;;;;;7.55;4.60;;;;;;;;;;5003631;28;20101;-71
2022/12/21 08:58:35;;;;;;;7.28;4.07;;;;;;;;;;5003647;28;20053;-70
2022/12/21 09:01:02;;;;;;;5.35;3.47;;;;;;;;;;5003649;28;20060;-73
2022/12/21 09:03:28;;;;;;;7.50;4.60;;;;;;;;;;5002813;28;20521;-71
2022/12/21 09:05:56;;;;;;;8.55;4.45;;;;;;;;;;5003818;28;20088;-70
2022/12/21 09:08:22;;;;;;;8.52;4.90;;;;;;;;;;5002050;28;20444;-70
2022/12/21 09:10:49;;;;;;;5.93;4.43;;;;;;;;;;4997074;28;20014;-70
2022/12/21 09:13:15;;;;;;;10.40;6.32;;;;;;;;;;5002686;28;20032;-71
2022/12/21 09:15:42;;;;;;;20.45;8.60;;;;;;;;;;5002882;28;20449;-70
2022/12/21 09:18:09;;;;;;;18.58;10.30;;;;;;;;;;5001989;28;20071;-70
2022/12/21 09:20:35;;;;;;;19.55;9.40;;;;;;;;;;5001464;28;20029;-70
2022/12/21 09:23:02;;;;;;;40.35;18.02;;;;;;;;;;5002669;28;20050;-71
2022/12/21 09:25:28;;;;;;;19.55;12.75;;;;;;;;;;5002319;28;20079;-72
2022/12/21 09:27:54;;;;;;;15.63;9.38;;;;;;;;;;5002825;28;20052;-71
2022/12/21 09:30:21;;;;;;;13.38;8.63;;;;;;;;;;5002967;28;20022;-71
2022/12/21 09:32:50;;;;;;;11.38;7.20;;;;;;;;;;5001019;28;20026;-71
2022/12/21 09:35:16;;;;;;;5.82;4.38;;;;;;;;;;5001238;28;20034;-71
2022/12/21 09:37:43;;;;;;;13.43;8.27;;;;;;;;;;5002431;28;20026;-73
2022/12/21 09:40:12;;;;;;;21.15;13.13;;;;;;;;;;5001224;28;20026;-73
2022/12/21 09:42:59;;;;;;;30.30;18.17;;;;;;;;;;5001935;28;20022;-73
2022/12/21 09:45:25;;;;;;;14.85;9.25;;;;;;;;;;5001134;28;20114;-71
2022/12/21 09:47:54;;;;;;;7.53;4.90;;;;;;;;;;5002473;28;20018;-74
2022/12/21 09:50:23;;;;;;;8.77;4.78;;;;;;;;;;5001565;28;20022;-74
2022/12/21 09:52:53;;;;;;;8.40;5.35;;;;;;;;;;5001672;28;20034;-73
2022/12/21 09:55:21;;;;;;;8.68;6.25;;;;;;;;;;5000959;28;20457;-73
2022/12/21 09:57:50;;;;;;;9.20;5.20;;;;;;;;;;5002653;28;20029;-72
2022/12/21 10:00:18;;;;;;;8.25;4.60;;;;;;;;;;5002716;28;20044;-73
2022/12/21 10:02:47;;;;;;;7.43;4.00;;;;;;;;;;5001331;28;20030;-73
2022/12/21 10:05:32;;;;;;;4.45;2.92;;;;;;;;;;5002257;28;20044;-73
2022/12/21 10:08:17;;;;;;;3.33;2.40;;;;;;;;;;4998638;28;20014;-72
2022/12/21 10:10:43;;;;;;;4.68;2.50;;;;;;;;;;5002142;28;20101;-72
2022/12/21 10:13:15;;;;;;;4.57;2.40;;;;;;;;;;5001267;28;20044;-72
2022/12/21 10:15:41;;;;;;;;;;;;;;;;;;5002536;28;20040;-72
2022/12/21 10:18:43;;;;;;;4.10;2.60;;;;;;;;;;5007606;28;20004;-73
2022/12/21 10:21:09;;;;;;;5.40;2.20;;;;;;;;;;4945791;28;20037;-74
2022/12/21 10:23:39;;;;;;;5.55;2.10;;;;;;;;;;4982536;28;20038;-74
2022/12/21 10:26:07;;;;;;;3.30;2.33;;;;;;;;;;5001581;28;20125;-74
2022/12/21 10:28:36;;;;;;;3.38;2.30;;;;;;;;;;5001800;28;20482;-75
2022/12/21 10:31:06;;;;;;;3.55;2.47;;;;;;;;;;4994888;28;20018;-74
2022/12/21 10:33:36;;;;;;;4.40;2.58;;;;;;;;;;5001247;28;20022;-73
2022/12/21 10:36:04;;;;;;;4.13;2.47;;;;;;;;;;4993325;28;20049;-72
2022/12/21 10:38:33;;;;;;;4.88;2.60;;;;;;;;;;5001997;28;20022;-75
2022/12/21 10:41:00;;;;;;;3.80;2.70;;;;;;;;;;5004937;28;20834;-79
2022/12/21 10:43:26;;;;;;;4.05;2.35;;;;;;;;;;5003342;28;20479;-80
2022/12/21 10:45:52;;;;;;;4.03;2.40;;;;;;;;;;5005089;28;20109;-79
2022/12/21 10:48:19;;;;;;;3.25;2.00;;;;;;;;;;5002562;28;20026;-80
2022/12/21 10:50:47;;;;;;;6.10;3.22;;;;;;;;;;5003823;28;20034;-80
2022/12/21 10:53:19;;;;;;;3.53;2.58;;;;;;;;;;5004272;28;20018;-80
2022/12/21 10:55:45;;;;;;;4.97;2.70;;;;;;;;;;5003066;28;20069;-80
2022/12/21 10:58:16;;;;;;;4.40;2.28;;;;;;;;;;5004939;28;20079;-80
2022/12/21 11:00:49;;;;;;;5.40;2.63;;;;;;;;;;5006328;28;20483;-79
2022/12/21 11:03:23;;;;;;;6.22;2.50;;;;;;;;;;5000984;28;20623;-80
2022/12/21 11:05:49;;;;;;;3.97;2.53;;;;;;;;;;5007013;28;20627;-80
2022/12/21 11:08:17;;;;;;;5.00;2.55;;;;;;;;;;5007543;28;20636;-79
2022/12/21 11:10:50;;;;;;;4.22;2.08;;;;;;;;;;5008626;28;20389;-80
2022/12/21 11:13:17;;;;;;;3.38;2.35;;;;;;;;;;5006463;28;20037;-80
2022/12/21 11:15:59;;;;;;;4.32;2.80;;;;;;;;;;5007333;28;20052;-79
2022/12/21 11:18:44;;;;;;;3.55;2.20;;;;;;;;;;5008613;28;20053;-80
2022/12/21 11:21:13;;;;;;;3.60;2.33;;;;;;;;;;5009200;28;20051;-79
2022/12/21 11:23:39;;;;;;;4.00;2.80;;;;;;;;;;5005399;28;20043;-80
2022/12/21 11:26:13;;;;;;;3.42;2.60;;;;;;;;;;5008430;28;20042;-80
2022/12/21 11:28:39;;;;;;;4.63;2.85;;;;;;;;;;5008639;28;20030;-81
2022/12/21 11:31:06;;;;;;;4.45;2.53;;;;;;;;;;5008240;28;20588;-80
2022/12/21 11:33:33;;;;;;;4.00;2.70;;;;;;;;;;5007702;28;20026;-82
2022/12/21 11:36:10;;;;;;;3.90;2.70;;;;;;;;;;5008130;28;20040;-80
2022/12/21 11:38:37;;;;;;;4.55;2.72;;;;;;;;;;5006754;28;20030;-81
2022/12/21 11:41:08;;;;;;;3.60;2.28;;;;;;;;;;5006766;28;20034;-80
2022/12/21 11:43:44;;;;;;;3.63;2.35;;;;;;;;;;5006528;28;20052;-80
2022/12/21 11:46:16;;;;;;;3.90;2.60;;;;;;;;;;5007995;28;20014;-80
2022/12/21 11:48:55;;;;;;;3.70;2.65;;;;;;;;;;5006486;28;20030;-81
2022/12/21 11:51:27;;;;;;;3.38;2.42;;;;;;;;;;5001794;28;20021;-80
2022/12/21 11:54:12;;;;;;;3.50;2.45;;;;;;;;;;5007385;28;20033;-80
2022/12/21 11:56:44;;;;;;;4.97;2.40;;;;;;;;;;5004184;28;20075;-81
2022/12/21 11:59:34;;;;;;;2.92;2.38;;;;;;;;;;5000516;28;20510;-81
2022/12/21 12:02:19;;;;;;;3.65;2.15;;;;;;;;;;5007829;28;20028;-80
2022/12/21 12:05:03;;;;;;;4.95;2.38;;;;;;;;;;5007353;28;20112;-81
2022/12/21 12:07:29;;;;;;;3.28;1.98;;;;;;;;;;5002775;28;20026;-80
2022/12/21 12:09:58;;;;;;;3.33;2.40;;;;;;;;;;5005887;28;20114;-81
2022/12/21 12:12:28;;;;;;;4.57;2.72;;;;;;;;;;5005438;28;20067;-80
2022/12/21 12:15:00;;;;;;;3.55;2.80;;;;;;;;;;5007120;28;20084;-81
2022/12/21 12:18:02;;;;;;;3.67;2.30;;;;;;;;;;5007690;28;20628;-80
2022/12/21 12:20:34;;;;;;;4.30;2.72;;;;;;;;;;4944664;29;20035;-80
2022/12/21 12:23:15;;;;;;;4.68;2.58;;;;;;;;;;4990881;28;20055;-81
2022/12/21 12:25:52;;;;;;;4.07;2.70;;;;;;;;;;5007369;28;20699;-80
2022/12/21 12:28:24;;;;;;;3.70;2.70;;;;;;;;;;5001060;28;20030;-82
2022/12/21 12:30:50;;;;;;;;;;;;;;;;;;5003572;28;20103;-81
2022/12/21 12:33:23;;;;;;;6.03;2.40;;;;;;;;;;5013611;28;19952;-81
2022/12/21 12:35:52;;;;;;;6.22;2.95;;;;;;;;;;5006805;28;20030;-80
2022/12/21 12:38:31;;;;;;;4.68;2.38;;;;;;;;;;4999828;28;20041;-80
2022/12/21 12:41:00;;;;;;;6.32;2.90;;;;;;;;;;5005640;28;20102;-81
2022/12/21 12:43:41;;;;;;;3.20;2.58;;;;;;;;;;5005014;28;20117;-80
2022/12/21 12:46:25;;;;;;;4.37;2.50;;;;;;;;;;5005966;28;20503;-80
2022/12/21 12:48:57;;;;;;;5.07;2.63;;;;;;;;;;5005407;28;20030;-80
2022/12/21 12:51:23;;;;;;;;;;;;;;;;;;4999282;28;20684;-80
2022/12/21 12:53:52;;;;;;;4.30;3.00;;;;;;;;;;5008999;28;20412;-80
2022/12/21 12:56:26;;;;;;;3.80;2.70;;;;;;;;;;5006539;28;20030;-81
2022/12/21 12:58:55;;;;;;;6.53;2.95;;;;;;;;;;5006965;28;20022;-80
2022/12/21 13:01:31;;;;;;;4.50;2.60;;;;;;;;;;5006503;28;20629;-81
2022/12/21 13:04:17;;;;;;;4.90;3.08;;;;;;;;;;5003083;28;20034;-80
2022/12/21 13:06:57;;;;;;;4.50;2.75;;;;;;;;;;5000688;28;20497;-80
2022/12/21 13:09:24;;;;;;;4.40;2.90;;;;;;;;;;5002216;28;20056;-80
2022/12/21 13:11:55;;;;;;;8.55;2.90;;;;;;;;;;5003732;28;20068;-80
2022/12/21 13:14:21;;;;;;;3.60;2.80;;;;;;;;;;5005937;28;20094;-81
2022/12/21 13:17:00;;;;;;;4.25;2.45;;;;;;;;;;5006343;28;20037;-80
2022/12/21 13:19:29;;;;;;;8.48;3.03;;;;;;;;;;4999450;28;20018;-80
2022/12/21 13:21:57;;;;;;;4.80;2.63;;;;;;;;;;5004735;28;20030;-80
2022/12/21 13:24:42;;;;;;;3.78;2.88;;;;;;;;;;4996735;28;20641;-80
2022/12/21 13:27:11;;;;;;;3.50;2.30;;;;;;;;;;5019415;28;20647;-82
2022/12/21 13:29:43;;;;;;;5.25;2.80;;;;;;;;;;5021846;28;20031;-82
2022/12/21 13:32:14;;;;;;;4.32;2.80;;;;;;;;;;5014692;28;20038;-78
2022/12/21 13:34:58;;;;;;;5.77;2.80;;;;;;;;;;5008544;28;21069;-77
2022/12/21 13:37:26;;;;;;;4.43;3.15;;;;;;;;;;5014778;28;20016;-79
2022/12/21 13:39:59;;;;;;;6.35;3.20;;;;;;;;;;5027786;28;20029;-80
2022/12/21 13:42:30;;;;;;;4.60;3.08;;;;;;;;;;5034046;28;20023;-77
2022/12/21 13:44:59;;;;;;;5.20;3.10;;;;;;;;;;5029831;28;20028;-78
2022/12/21 13:47:27;;;;;;;12.70;3.85;;;;;;;;;;5028847;28;20068;-77
2022/12/21 13:50:06;;;;;;;6.05;3.15;;;;;;;;;;5036853;28;20060;-78
2022/12/21 13:52:38;;;;;;;6.72;3.20;;;;;;;;;;5030512;28;20347;-82
2022/12/21 13:55:04;;;;;;;;;;;;;;;;;;5033381;28;20082;-76
2022/12/21 13:57:36;;;;;;;5.13;3.17;;;;;;;;;;5027824;28;19952;-76
2022/12/21 14:00:12;;;;;;;5.93;3.53;;;;;;;;;;5034302;28;20017;-78
2022/12/21 14:02:41;;;;;;;6.70;3.60;;;;;;;;;;5034687;28;20108;-77
2022/12/21 14:05:19;;;;;;;5.38;3.03;;;;;;;;;;5023958;28;20196;-78
2022/12/21 14:08:02;;;;;;;5.45;3.13;;;;;;;;;;5011432;28;20453;-79
2022/12/21 14:10:36;;;;;;;10.55;3.10;;;;;;;;;;5014646;28;20029;-79
2022/12/21 14:13:15;;;;;;;4.30;3.13;;;;;;;;;;5019624;28;20032;-86
2022/12/21 14:16:00;;;;;;;7.68;2.95;;;;;;;;;;5017989;28;20061;-76
2022/12/21 14:18:36;;;;;;;5.55;2.75;;;;;;;;;;5023803;28;20029;-88
2022/12/21 14:21:08;;;;;;;3.97;2.83;;;;;;;;;;5036905;28;20017;-88
2022/12/21 14:23:34;;;;;;;;;;;;;;;;;;5005874;28;20862;-83
2022/12/21 14:26:01;;;;;;;6.03;3.80;;;;;;;;;;5028787;28;20739;-78
2022/12/21 14:28:29;;;;;;;4.47;3.15;;;;;;;;;;5021701;28;20540;-80
2022/12/21 14:31:10;;;;;;;3.83;3.10;;;;;;;;;;5030129;28;20033;-83
2022/12/21 14:33:39;;;;;;;8.10;2.67;;;;;;;;;;5016780;28;20072;-83
2022/12/21 14:36:20;;;;;;;4.47;2.78;;;;;;;;;;5022405;28;20048;-89
2022/12/21 14:39:02;;;;;;;5.05;2.90;;;;;;;;;;5011127;28;20121;-83
2022/12/21 14:41:30;;;;;;;5.15;2.67;;;;;;;;;;5020497;28;20170;-85
2022/12/21 14:44:22;;;;;;;7.05;2.90;;;;;;;;;;5021787;28;20088;-83
2022/12/21 14:47:00;;;;;;;5.93;2.95;;;;;;;;;;5018915;28;20025;-84
2022/12/21 14:49:29;;;;;;;7.70;2.90;;;;;;;;;;5021932;28;20033;-87
2022/12/21 14:51:56;;;;;;;4.80;2.20;;;;;;;;;;5027541;28;20013;-87
2022/12/21 14:54:32;;;;;;;5.15;3.13;;;;;;;;;;5016067;28;20025;-85
2022/12/21 14:57:16;;;;;;;4.75;2.50;;;;;;;;;;5033721;28;20035;-82
2022/12/21 14:59:50;;;;;;;3.80;2.55;;;;;;;;;;5023882;28;20100;-84
2022/12/21 15:02:38;;;;;;;4.18;2.38;;;;;;;;;;5033979;28;20033;-85
2022/12/21 15:05:05;;;;;;;5.10;3.28;;;;;;;;;;5030231;28;20030;-79
2022/12/21 15:07:47;;;;;;;5.30;2.72;;;;;;;;;;5011841;28;20031;-83
2022/12/21 15:10:23;;;;;;;3.50;2.75;;;;;;;;;;5008709;28;20029;-81